Main page
METAR-TAF:

METAR-TAF

Airports :

Piacenza, Italy

Piacenza Air Base

latitude: 44-55N, longitude: 009-44E, elevation: 134 m

Current weather observation

The report was made 1 hour and 7 minutes ago, at 07:55 UTC
Wind 4 kt from the East/Southeast
Temperature 14°C
Humidity 100%
Pressure 1006 hPa
Visibility: 3000 m
Scattered clouds at a height of 1000 ft
Broken clouds at a height of 2300 ft
mist

METAR: LIMS 270755Z 12004KT 3000 BR SCT010 BKN023 14/14 Q1006 RMK OVC VIS MIN 3000 WIND THR30 11004KT YLO

Time: 11:02 (09:02 UTC)

Forecast

The report was made 1 hour and 2 minutes ago, at 08:00 UTC
Forecast valid from 27 at 09 UTC to 27 at 18 UTC
Wind 5 kt from variable directions
Visibility: 3500 m
Scattered clouds at a height of 1000 ft
Broken clouds at a height of 2500 ft
mist
Temporary
from 27 at 11 UTC to 27 at 17 UTC
Visibility: 2000 m
Scattered clouds at a height of 800 ft
Broken clouds at a height of 2000 ft
rain showers

TAF: LIMS 270800Z 2709/2718 VRB05KT 3500 BR SCT010 BKN025 TEMPO 2711/2717 2000 SHRA SCT008 BKN020

Weather observations and forecasts of more than 4000 airports (METAR and TAF reports).

The available stations are represented by yellow and red dots on the map.

Hover mouse over dot to see the name of the station.

Then click to see weather observations and forecasts.

To change the map : click on the green buttons with a black cross to zoom in, on the green button with a dash to zoom out, or on the green arrows for adjacent maps.


METAR-TAF: